sensor_id;sensor_type;location;lat;lon;timestamp;P1;durP1;ratioP1;P2;durP2;ratioP2
24771;SDS011;12870;52.274;9.754;2022-12-15T00:00:04;0.50;;;0.50;;
24771;SDS011;12870;52.274;9.754;2022-12-15T00:02:49;0.50;;;0.50;;
24771;SDS011;12870;52.274;9.754;2022-12-15T00:05:33;0.50;;;0.50;;
24771;SDS011;12870;52.274;9.754;2022-12-15T00:08:17;0.50;;;0.50;;
24771;SDS011;12870;52.274;9.754;2022-12-15T00:11:01;0.50;;;0.50;;
24771;SDS011;12870;52.274;9.754;2022-12-15T00:13:46;0.50;;;0.50;;
24771;SDS011;12870;52.274;9.754;2022-12-15T00:16:30;0.60;;;0.60;;
24771;SDS011;12870;52.274;9.754;2022-12-15T00:19:14;0.53;;;0.53;;
24771;SDS011;12870;52.274;9.754;2022-12-15T00:21:58;0.50;;;0.50;;
24771;SDS011;12870;52.274;9.754;2022-12-15T00:24:43;0.50;;;0.50;;
24771;SDS011;12870;52.274;9.754;2022-12-15T00:27:27;0.50;;;0.50;;
24771;SDS011;12870;52.274;9.754;2022-12-15T00:30:11;0.50;;;0.50;;
24771;SDS011;12870;52.274;9.754;2022-12-15T00:32:56;0.50;;;0.50;;
24771;SDS011;12870;52.274;9.754;2022-12-15T00:35:40;0.50;;;0.50;;
24771;SDS011;12870;52.274;9.754;2022-12-15T00:38:24;0.50;;;0.50;;
24771;SDS011;12870;52.274;9.754;2022-12-15T00:41:06;0.50;;;0.50;;
24771;SDS011;12870;52.274;9.754;2022-12-15T00:43:32;0.50;;;0.50;;
24771;SDS011;12870;52.274;9.754;2022-12-15T00:45:59;0.50;;;0.50;;
24771;SDS011;12870;52.274;9.754;2022-12-15T00:48:44;0.50;;;0.50;;
24771;SDS011;12870;52.274;9.754;2022-12-15T00:51:11;0.50;;;0.50;;
24771;SDS011;12870;52.274;9.754;2022-12-15T00:53:37;0.50;;;0.50;;
24771;SDS011;12870;52.274;9.754;2022-12-15T00:56:23;0.50;;;0.50;;
24771;SDS011;12870;52.274;9.754;2022-12-15T00:59:07;0.50;;;0.50;;
24771;SDS011;12870;52.274;9.754;2022-12-15T01:01:52;0.50;;;0.50;;
24771;SDS011;12870;52.274;9.754;2022-12-15T01:04:36;0.50;;;0.50;;
24771;SDS011;12870;52.274;9.754;2022-12-15T01:07:20;0.50;;;0.50;;
24771;SDS011;12870;52.274;9.754;2022-12-15T01:10:04;0.50;;;0.50;;
24771;SDS011;12870;52.274;9.754;2022-12-15T01:12:49;0.50;;;0.50;;
24771;SDS011;12870;52.274;9.754;2022-12-15T01:15:34;0.50;;;0.50;;
24771;SDS011;12870;52.274;9.754;2022-12-15T01:18:19;0.50;;;0.50;;
24771;SDS011;12870;52.274;9.754;2022-12-15T01:21:04;0.50;;;0.50;;
24771;SDS011;12870;52.274;9.754;2022-12-15T01:23:35;0.50;;;0.50;;
24771;SDS011;12870;52.274;9.754;2022-12-15T01:26:02;0.50;;;0.50;;
24771;SDS011;12870;52.274;9.754;2022-12-15T01:28:29;0.60;;;0.60;;
24771;SDS011;12870;52.274;9.754;2022-12-15T01:30:55;0.50;;;0.50;;
24771;SDS011;12870;52.274;9.754;2022-12-15T01:33:21;0.50;;;0.50;;
24771;SDS011;12870;52.274;9.754;2022-12-15T01:35:57;0.50;;;0.50;;
24771;SDS011;12870;52.274;9.754;2022-12-15T01:38:24;0.50;;;0.50;;
24771;SDS011;12870;52.274;9.754;2022-12-15T01:40:53;0.50;;;0.50;;
24771;SDS011;12870;52.274;9.754;2022-12-15T01:43:22;0.50;;;0.50;;
24771;SDS011;12870;52.274;9.754;2022-12-15T01:46:04;0.50;;;0.50;;
24771;SDS011;12870;52.274;9.754;2022-12-15T01:48:56;0.50;;;0.50;;
24771;SDS011;12870;52.274;9.754;2022-12-15T01:51:45;0.50;;;0.50;;
24771;SDS011;12870;52.274;9.754;2022-12-15T01:57:11;0.50;;;0.50;;
24771;SDS011;12870;52.274;9.754;2022-12-15T01:59:43;0.50;;;0.50;;
24771;SDS011;12870;52.274;9.754;2022-12-15T02:02:15;0.50;;;0.50;;
24771;SDS011;12870;52.274;9.754;2022-12-15T02:04:43;0.50;;;0.50;;
24771;SDS011;12870;52.274;9.754;2022-12-15T02:07:13;0.50;;;0.50;;
24771;SDS011;12870;52.274;9.754;2022-12-15T02:09:40;0.50;;;0.50;;
24771;SDS011;12870;52.274;9.754;2022-12-15T02:14:43;0.50;;;0.50;;
24771;SDS011;12870;52.274;9.754;2022-12-15T02:20:19;0.50;;;0.50;;
24771;SDS011;12870;52.274;9.754;2022-12-15T02:31:54;0.50;;;0.50;;
24771;SDS011;12870;52.274;9.754;2022-12-15T02:37:16;0.50;;;0.50;;
24771;SDS011;12870;52.274;9.754;2022-12-15T02:39:45;0.50;;;0.50;;
24771;SDS011;12870;52.274;9.754;2022-12-15T02:42:11;0.50;;;0.50;;
24771;SDS011;12870;52.274;9.754;2022-12-15T02:44:37;0.50;;;0.50;;
24771;SDS011;12870;52.274;9.754;2022-12-15T02:55:34;0.50;;;0.50;;
24771;SDS011;12870;52.274;9.754;2022-12-15T03:01:19;0.50;;;0.50;;
24771;SDS011;12870;52.274;9.754;2022-12-15T03:03:56;0.50;;;0.50;;
24771;SDS011;12870;52.274;9.754;2022-12-15T03:06:24;0.50;;;0.50;;
24771;SDS011;12870;52.274;9.754;2022-12-15T03:08:51;0.50;;;0.50;;
24771;SDS011;12870;52.274;9.754;2022-12-15T03:11:17;0.50;;;0.50;;
24771;SDS011;12870;52.274;9.754;2022-12-15T03:13:42;0.50;;;0.50;;
24771;SDS011;12870;52.274;9.754;2022-12-15T03:16:08;0.50;;;0.50;;
24771;SDS011;12870;52.274;9.754;2022-12-15T03:18:34;0.50;;;0.50;;
24771;SDS011;12870;52.274;9.754;2022-12-15T03:20:59;0.50;;;0.50;;
24771;SDS011;12870;52.274;9.754;2022-12-15T03:23:25;0.50;;;0.50;;
24771;SDS011;12870;52.274;9.754;2022-12-15T03:25:51;0.50;;;0.50;;
24771;SDS011;12870;52.274;9.754;2022-12-15T03:28:17;0.50;;;0.50;;
24771;SDS011;12870;52.274;9.754;2022-12-15T03:30:42;0.50;;;0.50;;
24771;SDS011;12870;52.274;9.754;2022-12-15T03:33:09;0.50;;;0.50;;
24771;SDS011;12870;52.274;9.754;2022-12-15T03:35:34;0.50;;;0.50;;
24771;SDS011;12870;52.274;9.754;2022-12-15T03:38:00;0.50;;;0.50;;
24771;SDS011;12870;52.274;9.754;2022-12-15T03:40:26;0.50;;;0.50;;
24771;SDS011;12870;52.274;9.754;2022-12-15T03:42:51;0.50;;;0.50;;
24771;SDS011;12870;52.274;9.754;2022-12-15T03:45:18;0.50;;;0.50;;
24771;SDS011;12870;52.274;9.754;2022-12-15T03:47:45;0.50;;;0.50;;
24771;SDS011;12870;52.274;9.754;2022-12-15T03:50:12;0.50;;;0.50;;
24771;SDS011;12870;52.274;9.754;2022-12-15T03:52:40;0.50;;;0.50;;
24771;SDS011;12870;52.274;9.754;2022-12-15T03:55:06;0.50;;;0.50;;
24771;SDS011;12870;52.274;9.754;2022-12-15T03:57:33;0.50;;;0.50;;
24771;SDS011;12870;52.274;9.754;2022-12-15T03:59:59;0.50;;;0.50;;
24771;SDS011;12870;52.274;9.754;2022-12-15T04:02:25;0.50;;;0.50;;
24771;SDS011;12870;52.274;9.754;2022-12-15T04:04:51;0.50;;;0.50;;
24771;SDS011;12870;52.274;9.754;2022-12-15T04:07:16;0.50;;;0.50;;
24771;SDS011;12870;52.274;9.754;2022-12-15T04:09:42;0.50;;;0.50;;
24771;SDS011;12870;52.274;9.754;2022-12-15T04:12:09;0.50;;;0.50;;
24771;SDS011;12870;52.274;9.754;2022-12-15T04:14:35;0.50;;;0.50;;
24771;SDS011;12870;52.274;9.754;2022-12-15T04:17:06;0.50;;;0.50;;
24771;SDS011;12870;52.274;9.754;2022-12-15T04:19:34;0.50;;;0.50;;
24771;SDS011;12870;52.274;9.754;2022-12-15T04:22:18;0.50;;;0.50;;
24771;SDS011;12870;52.274;9.754;2022-12-15T04:24:44;0.50;;;0.50;;
24771;SDS011;12870;52.274;9.754;2022-12-15T04:27:28;0.50;;;0.50;;
24771;SDS011;12870;52.274;9.754;2022-12-15T04:30:12;0.50;;;0.50;;
24771;SDS011;12870;52.274;9.754;2022-12-15T04:32:56;0.50;;;0.50;;
24771;SDS011;12870;52.274;9.754;2022-12-15T04:35:41;0.50;;;0.50;;
24771;SDS011;12870;52.274;9.754;2022-12-15T04:38:25;0.50;;;0.50;;
24771;SDS011;12870;52.274;9.754;2022-12-15T04:41:10;0.50;;;0.50;;
24771;SDS011;12870;52.274;9.754;2022-12-15T04:43:56;0.50;;;0.50;;
24771;SDS011;12870;52.274;9.754;2022-12-15T04:46:40;0.50;;;0.50;;
24771;SDS011;12870;52.274;9.754;2022-12-15T04:49:24;0.50;;;0.50;;
24771;SDS011;12870;52.274;9.754;2022-12-15T04:52:08;0.50;;;0.50;;
24771;SDS011;12870;52.274;9.754;2022-12-15T04:54:52;0.50;;;0.50;;
24771;SDS011;12870;52.274;9.754;2022-12-15T04:57:36;0.50;;;0.50;;
24771;SDS011;12870;52.274;9.754;2022-12-15T05:00:20;0.50;;;0.50;;
24771;SDS011;12870;52.274;9.754;2022-12-15T05:03:05;0.50;;;0.50;;
24771;SDS011;12870;52.274;9.754;2022-12-15T05:05:50;0.50;;;0.50;;
24771;SDS011;12870;52.274;9.754;2022-12-15T05:08:34;0.50;;;0.50;;
24771;SDS011;12870;52.274;9.754;2022-12-15T05:11:19;0.50;;;0.50;;
24771;SDS011;12870;52.274;9.754;2022-12-15T05:14:03;0.50;;;0.50;;
24771;SDS011;12870;52.274;9.754;2022-12-15T05:16:47;0.50;;;0.50;;
24771;SDS011;12870;52.274;9.754;2022-12-15T05:19:31;0.47;;;0.47;;
24771;SDS011;12870;52.274;9.754;2022-12-15T05:22:15;0.50;;;0.50;;
24771;SDS011;12870;52.274;9.754;2022-12-15T05:24:59;0.50;;;0.50;;
24771;SDS011;12870;52.274;9.754;2022-12-15T05:27:43;0.50;;;0.50;;
24771;SDS011;12870;52.274;9.754;2022-12-15T05:30:28;0.40;;;0.40;;
24771;SDS011;12870;52.274;9.754;2022-12-15T05:33:12;0.50;;;0.50;;
24771;SDS011;12870;52.274;9.754;2022-12-15T05:35:38;0.50;;;0.50;;
24771;SDS011;12870;52.274;9.754;2022-12-15T05:38:04;0.50;;;0.50;;
24771;SDS011;12870;52.274;9.754;2022-12-15T05:40:30;0.50;;;0.50;;
24771;SDS011;12870;52.274;9.754;2022-12-15T05:42:58;0.50;;;0.50;;
24771;SDS011;12870;52.274;9.754;2022-12-15T05:45:25;0.50;;;0.50;;
24771;SDS011;12870;52.274;9.754;2022-12-15T05:47:51;0.50;;;0.50;;
24771;SDS011;12870;52.274;9.754;2022-12-15T05:50:18;0.50;;;0.50;;
24771;SDS011;12870;52.274;9.754;2022-12-15T05:52:44;0.50;;;0.50;;
24771;SDS011;12870;52.274;9.754;2022-12-15T05:55:10;0.50;;;0.50;;
24771;SDS011;12870;52.274;9.754;2022-12-15T05:57:37;0.50;;;0.50;;
24771;SDS011;12870;52.274;9.754;2022-12-15T06:00:03;0.50;;;0.50;;
24771;SDS011;12870;52.274;9.754;2022-12-15T06:02:29;0.50;;;0.50;;
24771;SDS011;12870;52.274;9.754;2022-12-15T06:04:55;0.50;;;0.50;;
24771;SDS011;12870;52.274;9.754;2022-12-15T06:07:21;0.50;;;0.50;;
24771;SDS011;12870;52.274;9.754;2022-12-15T06:09:47;0.50;;;0.50;;
24771;SDS011;12870;52.274;9.754;2022-12-15T06:12:12;0.50;;;0.50;;
24771;SDS011;12870;52.274;9.754;2022-12-15T06:14:38;0.50;;;0.50;;
24771;SDS011;12870;52.274;9.754;2022-12-15T06:17:04;0.50;;;0.50;;
24771;SDS011;12870;52.274;9.754;2022-12-15T06:19:29;0.40;;;0.40;;
24771;SDS011;12870;52.274;9.754;2022-12-15T06:21:55;0.50;;;0.50;;
24771;SDS011;12870;52.274;9.754;2022-12-15T06:24:20;0.50;;;0.50;;
24771;SDS011;12870;52.274;9.754;2022-12-15T06:26:46;0.50;;;0.50;;
24771;SDS011;12870;52.274;9.754;2022-12-15T06:29:12;0.50;;;0.50;;
24771;SDS011;12870;52.274;9.754;2022-12-15T06:31:39;0.50;;;0.50;;
24771;SDS011;12870;52.274;9.754;2022-12-15T06:34:06;0.50;;;0.50;;
24771;SDS011;12870;52.274;9.754;2022-12-15T06:36:34;0.50;;;0.50;;
24771;SDS011;12870;52.274;9.754;2022-12-15T06:39:01;0.50;;;0.50;;
24771;SDS011;12870;52.274;9.754;2022-12-15T06:41:28;0.50;;;0.50;;
24771;SDS011;12870;52.274;9.754;2022-12-15T06:43:55;0.50;;;0.50;;
24771;SDS011;12870;52.274;9.754;2022-12-15T06:46:21;0.50;;;0.50;;
24771;SDS011;12870;52.274;9.754;2022-12-15T06:48:47;0.40;;;0.40;;
24771;SDS011;12870;52.274;9.754;2022-12-15T06:51:14;0.50;;;0.50;;
24771;SDS011;12870;52.274;9.754;2022-12-15T06:53:40;0.50;;;0.50;;
24771;SDS011;12870;52.274;9.754;2022-12-15T06:56:15;0.50;;;0.50;;
24771;SDS011;12870;52.274;9.754;2022-12-15T06:59:03;0.50;;;0.50;;
24771;SDS011;12870;52.274;9.754;2022-12-15T07:01:30;0.50;;;0.50;;
24771;SDS011;12870;52.274;9.754;2022-12-15T07:03:57;0.50;;;0.50;;
24771;SDS011;12870;52.274;9.754;2022-12-15T07:06:26;0.50;;;0.50;;
24771;SDS011;12870;52.274;9.754;2022-12-15T07:08:58;0.50;;;0.50;;
24771;SDS011;12870;52.274;9.754;2022-12-15T07:11:23;0.50;;;0.50;;
24771;SDS011;12870;52.274;9.754;2022-12-15T07:13:50;0.50;;;0.50;;
24771;SDS011;12870;52.274;9.754;2022-12-15T07:16:17;0.50;;;0.50;;
24771;SDS011;12870;52.274;9.754;2022-12-15T07:18:43;0.50;;;0.50;;
24771;SDS011;12870;52.274;9.754;2022-12-15T07:21:09;0.50;;;0.50;;
24771;SDS011;12870;52.274;9.754;2022-12-15T07:23:35;0.50;;;0.50;;
24771;SDS011;12870;52.274;9.754;2022-12-15T07:26:10;0.50;;;0.50;;
24771;SDS011;12870;52.274;9.754;2022-12-15T07:28:36;0.50;;;0.50;;
24771;SDS011;12870;52.274;9.754;2022-12-15T07:31:02;0.50;;;0.50;;
24771;SDS011;12870;52.274;9.754;2022-12-15T07:33:33;0.40;;;0.40;;
24771;SDS011;12870;52.274;9.754;2022-12-15T07:35:59;0.50;;;0.50;;
24771;SDS011;12870;52.274;9.754;2022-12-15T07:38:26;0.50;;;0.50;;
24771;SDS011;12870;52.274;9.754;2022-12-15T07:40:52;0.50;;;0.50;;
24771;SDS011;12870;52.274;9.754;2022-12-15T07:43:19;0.50;;;0.50;;
24771;SDS011;12870;52.274;9.754;2022-12-15T07:45:51;0.50;;;0.50;;
24771;SDS011;12870;52.274;9.754;2022-12-15T07:48:17;0.43;;;0.43;;
24771;SDS011;12870;52.274;9.754;2022-12-15T07:50:43;0.50;;;0.50;;
24771;SDS011;12870;52.274;9.754;2022-12-15T07:53:09;0.50;;;0.50;;
24771;SDS011;12870;52.274;9.754;2022-12-15T07:55:35;0.50;;;0.50;;
24771;SDS011;12870;52.274;9.754;2022-12-15T07:58:01;0.50;;;0.50;;
24771;SDS011;12870;52.274;9.754;2022-12-15T08:00:27;0.50;;;0.50;;
24771;SDS011;12870;52.274;9.754;2022-12-15T08:02:52;0.50;;;0.50;;
24771;SDS011;12870;52.274;9.754;2022-12-15T08:05:18;0.50;;;0.50;;
24771;SDS011;12870;52.274;9.754;2022-12-15T08:07:44;0.50;;;0.50;;
24771;SDS011;12870;52.274;9.754;2022-12-15T08:10:10;0.50;;;0.50;;
24771;SDS011;12870;52.274;9.754;2022-12-15T08:12:36;0.50;;;0.50;;
24771;SDS011;12870;52.274;9.754;2022-12-15T08:15:02;0.50;;;0.50;;
24771;SDS011;12870;52.274;9.754;2022-12-15T08:17:28;0.50;;;0.50;;
24771;SDS011;12870;52.274;9.754;2022-12-15T08:19:54;0.50;;;0.50;;
24771;SDS011;12870;52.274;9.754;2022-12-15T08:22:19;0.50;;;0.50;;
24771;SDS011;12870;52.274;9.754;2022-12-15T08:24:45;0.50;;;0.50;;
24771;SDS011;12870;52.274;9.754;2022-12-15T08:27:12;0.50;;;0.50;;
24771;SDS011;12870;52.274;9.754;2022-12-15T08:29:37;0.50;;;0.50;;
24771;SDS011;12870;52.274;9.754;2022-12-15T08:32:03;0.50;;;0.50;;
24771;SDS011;12870;52.274;9.754;2022-12-15T08:34:29;0.50;;;0.50;;
24771;SDS011;12870;52.274;9.754;2022-12-15T08:36:55;0.50;;;0.50;;
24771;SDS011;12870;52.274;9.754;2022-12-15T08:39:20;0.40;;;0.40;;
24771;SDS011;12870;52.274;9.754;2022-12-15T08:41:46;0.50;;;0.50;;
24771;SDS011;12870;52.274;9.754;2022-12-15T08:44:12;0.40;;;0.40;;
24771;SDS011;12870;52.274;9.754;2022-12-15T08:46:38;0.50;;;0.50;;
24771;SDS011;12870;52.274;9.754;2022-12-15T08:49:04;0.50;;;0.50;;
24771;SDS011;12870;52.274;9.754;2022-12-15T08:51:30;0.40;;;0.40;;
24771;SDS011;12870;52.274;9.754;2022-12-15T08:53:57;0.40;;;0.40;;
24771;SDS011;12870;52.274;9.754;2022-12-15T08:56:24;0.50;;;0.50;;
24771;SDS011;12870;52.274;9.754;2022-12-15T08:58:58;0.50;;;0.50;;
24771;SDS011;12870;52.274;9.754;2022-12-15T09:01:26;0.40;;;0.40;;
24771;SDS011;12870;52.274;9.754;2022-12-15T09:03:53;0.40;;;0.40;;
24771;SDS011;12870;52.274;9.754;2022-12-15T09:06:27;0.40;;;0.40;;
24771;SDS011;12870;52.274;9.754;2022-12-15T09:08:54;0.47;;;0.47;;
24771;SDS011;12870;52.274;9.754;2022-12-15T09:11:21;0.40;;;0.40;;
24771;SDS011;12870;52.274;9.754;2022-12-15T09:13:48;0.40;;;0.40;;
24771;SDS011;12870;52.274;9.754;2022-12-15T09:16:14;0.40;;;0.40;;
24771;SDS011;12870;52.274;9.754;2022-12-15T09:18:44;0.40;;;0.40;;
24771;SDS011;12870;52.274;9.754;2022-12-15T09:21:12;0.40;;;0.40;;
24771;SDS011;12870;52.274;9.754;2022-12-15T09:23:38;0.40;;;0.40;;
24771;SDS011;12870;52.274;9.754;2022-12-15T09:26:05;0.40;;;0.40;;
24771;SDS011;12870;52.274;9.754;2022-12-15T09:28:33;0.40;;;0.40;;
24771;SDS011;12870;52.274;9.754;2022-12-15T09:31:02;0.50;;;0.50;;
24771;SDS011;12870;52.274;9.754;2022-12-15T09:33:31;0.40;;;0.40;;
24771;SDS011;12870;52.274;9.754;2022-12-15T09:35:57;0.40;;;0.40;;
24771;SDS011;12870;52.274;9.754;2022-12-15T09:38:23;0.47;;;0.47;;
24771;SDS011;12870;52.274;9.754;2022-12-15T09:40:48;0.40;;;0.40;;
24771;SDS011;12870;52.274;9.754;2022-12-15T09:43:16;0.40;;;0.40;;
24771;SDS011;12870;52.274;9.754;2022-12-15T09:45:46;0.40;;;0.40;;
24771;SDS011;12870;52.274;9.754;2022-12-15T09:48:40;0.40;;;0.40;;
24771;SDS011;12870;52.274;9.754;2022-12-15T09:51:07;0.40;;;0.40;;
24771;SDS011;12870;52.274;9.754;2022-12-15T09:53:38;0.40;;;0.40;;
24771;SDS011;12870;52.274;9.754;2022-12-15T09:56:06;0.40;;;0.40;;
24771;SDS011;12870;52.274;9.754;2022-12-15T10:04:40;0.40;;;0.40;;
24771;SDS011;12870;52.274;9.754;2022-12-15T10:09:56;0.50;;;0.50;;
24771;SDS011;12870;52.274;9.754;2022-12-15T10:12:25;0.40;;;0.40;;
24771;SDS011;12870;52.274;9.754;2022-12-15T10:22:43;0.40;;;0.40;;
24771;SDS011;12870;52.274;9.754;2022-12-15T10:25:20;0.40;;;0.40;;
24771;SDS011;12870;52.274;9.754;2022-12-15T10:30:56;0.40;;;0.40;;
24771;SDS011;12870;52.274;9.754;2022-12-15T10:33:23;0.40;;;0.40;;
24771;SDS011;12870;52.274;9.754;2022-12-15T10:36:00;0.37;;;0.37;;
24771;SDS011;12870;52.274;9.754;2022-12-15T10:38:36;0.40;;;0.40;;
24771;SDS011;12870;52.274;9.754;2022-12-15T10:41:07;0.40;;;0.40;;
24771;SDS011;12870;52.274;9.754;2022-12-15T10:43:53;0.40;;;0.40;;
24771;SDS011;12870;52.274;9.754;2022-12-15T10:46:26;0.30;;;0.30;;
24771;SDS011;12870;52.274;9.754;2022-12-15T10:51:24;0.40;;;0.40;;
24771;SDS011;12870;52.274;9.754;2022-12-15T10:54:08;0.30;;;0.30;;
24771;SDS011;12870;52.274;9.754;2022-12-15T10:56:53;0.30;;;0.30;;
24771;SDS011;12870;52.274;9.754;2022-12-15T10:59:30;0.30;;;0.30;;
24771;SDS011;12870;52.274;9.754;2022-12-15T11:07:44;0.30;;;0.30;;
24771;SDS011;12870;52.274;9.754;2022-12-15T11:13:32;0.30;;;0.30;;
24771;SDS011;12870;52.274;9.754;2022-12-15T11:15:57;0.30;;;0.30;;
24771;SDS011;12870;52.274;9.754;2022-12-15T11:18:38;0.20;;;0.20;;
24771;SDS011;12870;52.274;9.754;2022-12-15T11:21:06;0.20;;;0.20;;
24771;SDS011;12870;52.274;9.754;2022-12-15T11:23:44;0.20;;;0.20;;
24771;SDS011;12870;52.274;9.754;2022-12-15T11:29:11;0.20;;;0.20;;
24771;SDS011;12870;52.274;9.754;2022-12-15T11:31:58;0.20;;;0.20;;
24771;SDS011;12870;52.274;9.754;2022-12-15T11:34:25;0.20;;;0.20;;
24771;SDS011;12870;52.274;9.754;2022-12-15T11:42:24;0.20;;;0.20;;
24771;SDS011;12870;52.274;9.754;2022-12-15T11:45:18;0.20;;;0.20;;
24771;SDS011;12870;52.274;9.754;2022-12-15T11:48:15;0.20;;;0.20;;
24771;SDS011;12870;52.274;9.754;2022-12-15T11:56:52;0.20;;;0.20;;
24771;SDS011;12870;52.274;9.754;2022-12-15T12:08:05;0.20;;;0.20;;
24771;SDS011;12870;52.274;9.754;2022-12-15T12:18:35;0.20;;;0.20;;
24771;SDS011;12870;52.274;9.754;2022-12-15T12:21:15;0.20;;;0.20;;
24771;SDS011;12870;52.274;9.754;2022-12-15T12:23:49;0.20;;;0.20;;
24771;SDS011;12870;52.274;9.754;2022-12-15T12:34:23;0.20;;;0.20;;
24771;SDS011;12870;52.274;9.754;2022-12-15T12:37:00;0.20;;;0.20;;
24771;SDS011;12870;52.274;9.754;2022-12-15T12:39:37;0.20;;;0.20;;
24771;SDS011;12870;52.274;9.754;2022-12-15T12:42:19;0.20;;;0.20;;
24771;SDS011;12870;52.274;9.754;2022-12-15T12:45:00;0.20;;;0.20;;
24771;SDS011;12870;52.274;9.754;2022-12-15T12:47:35;0.20;;;0.20;;
24771;SDS011;12870;52.274;9.754;2022-12-15T12:50:14;0.20;;;0.20;;
24771;SDS011;12870;52.274;9.754;2022-12-15T12:52:47;0.20;;;0.20;;
24771;SDS011;12870;52.274;9.754;2022-12-15T12:55:40;0.20;;;0.20;;
24771;SDS011;12870;52.274;9.754;2022-12-15T13:07:01;0.20;;;0.20;;
24771;SDS011;12870;52.274;9.754;2022-12-15T13:09:42;0.20;;;0.20;;
24771;SDS011;12870;52.274;9.754;2022-12-15T13:12:50;0.20;;;0.20;;
24771;SDS011;12870;52.274;9.754;2022-12-15T13:17:53;0.20;;;0.20;;
24771;SDS011;12870;52.274;9.754;2022-12-15T13:20:29;0.20;;;0.20;;
24771;SDS011;12870;52.274;9.754;2022-12-15T13:23:32;0.20;;;0.20;;
24771;SDS011;12870;52.274;9.754;2022-12-15T13:26:09;0.20;;;0.20;;
24771;SDS011;12870;52.274;9.754;2022-12-15T13:41:29;0.20;;;0.20;;
24771;SDS011;12870;52.274;9.754;2022-12-15T13:43:57;0.20;;;0.20;;
24771;SDS011;12870;52.274;9.754;2022-12-15T13:46:25;0.20;;;0.20;;
24771;SDS011;12870;52.274;9.754;2022-12-15T13:49:04;0.20;;;0.20;;
24771;SDS011;12870;52.274;9.754;2022-12-15T13:51:37;0.20;;;0.20;;
24771;SDS011;12870;52.274;9.754;2022-12-15T14:07:47;0.30;;;0.30;;
24771;SDS011;12870;52.274;9.754;2022-12-15T14:10:43;0.30;;;0.30;;
24771;SDS011;12870;52.274;9.754;2022-12-15T14:18:40;0.30;;;0.30;;
24771;SDS011;12870;52.274;9.754;2022-12-15T14:21:17;0.30;;;0.30;;
24771;SDS011;12870;52.274;9.754;2022-12-15T14:23:49;0.30;;;0.30;;
24771;SDS011;12870;52.274;9.754;2022-12-15T14:26:15;0.30;;;0.30;;
24771;SDS011;12870;52.274;9.754;2022-12-15T14:28:42;0.30;;;0.30;;
24771;SDS011;12870;52.274;9.754;2022-12-15T14:33:45;0.30;;;0.30;;
24771;SDS011;12870;52.274;9.754;2022-12-15T14:36:22;0.30;;;0.30;;
24771;SDS011;12870;52.274;9.754;2022-12-15T14:38:53;0.30;;;0.30;;
24771;SDS011;12870;52.274;9.754;2022-12-15T14:41:35;0.30;;;0.30;;
24771;SDS011;12870;52.274;9.754;2022-12-15T14:44:12;0.30;;;0.30;;
24771;SDS011;12870;52.274;9.754;2022-12-15T14:46:57;0.30;;;0.30;;
24771;SDS011;12870;52.274;9.754;2022-12-15T14:49:27;0.30;;;0.30;;
24771;SDS011;12870;52.274;9.754;2022-12-15T14:51:57;0.30;;;0.30;;
24771;SDS011;12870;52.274;9.754;2022-12-15T14:59:42;0.30;;;0.30;;
24771;SDS011;12870;52.274;9.754;2022-12-15T15:02:10;0.30;;;0.30;;
24771;SDS011;12870;52.274;9.754;2022-12-15T15:04:37;0.30;;;0.30;;
24771;SDS011;12870;52.274;9.754;2022-12-15T15:07:04;0.30;;;0.30;;
24771;SDS011;12870;52.274;9.754;2022-12-15T15:09:32;0.30;;;0.30;;
24771;SDS011;12870;52.274;9.754;2022-12-15T15:12:08;0.30;;;0.30;;
24771;SDS011;12870;52.274;9.754;2022-12-15T15:19:54;0.33;;;0.33;;
24771;SDS011;12870;52.274;9.754;2022-12-15T15:22:31;0.30;;;0.30;;
24771;SDS011;12870;52.274;9.754;2022-12-15T15:25:00;0.30;;;0.30;;
24771;SDS011;12870;52.274;9.754;2022-12-15T15:27:33;0.40;;;0.40;;
24771;SDS011;12870;52.274;9.754;2022-12-15T15:30:15;0.40;;;0.40;;
24771;SDS011;12870;52.274;9.754;2022-12-15T15:32:58;0.40;;;0.40;;
24771;SDS011;12870;52.274;9.754;2022-12-15T15:35:29;0.30;;;0.30;;
24771;SDS011;12870;52.274;9.754;2022-12-15T15:38:03;0.30;;;0.30;;
24771;SDS011;12870;52.274;9.754;2022-12-15T15:40:38;0.30;;;0.30;;
24771;SDS011;12870;52.274;9.754;2022-12-15T15:43:09;0.30;;;0.30;;
24771;SDS011;12870;52.274;9.754;2022-12-15T15:45:36;0.40;;;0.40;;
24771;SDS011;12870;52.274;9.754;2022-12-15T15:48:03;0.30;;;0.30;;
24771;SDS011;12870;52.274;9.754;2022-12-15T15:50:30;0.40;;;0.40;;
24771;SDS011;12870;52.274;9.754;2022-12-15T15:52:56;0.30;;;0.30;;
24771;SDS011;12870;52.274;9.754;2022-12-15T15:55:27;0.30;;;0.30;;
24771;SDS011;12870;52.274;9.754;2022-12-15T15:57:55;0.30;;;0.30;;
24771;SDS011;12870;52.274;9.754;2022-12-15T16:00:23;0.40;;;0.40;;
24771;SDS011;12870;52.274;9.754;2022-12-15T16:02:50;0.40;;;0.40;;
24771;SDS011;12870;52.274;9.754;2022-12-15T16:05:16;0.40;;;0.40;;
24771;SDS011;12870;52.274;9.754;2022-12-15T16:07:42;0.40;;;0.40;;
24771;SDS011;12870;52.274;9.754;2022-12-15T16:10:11;0.33;;;0.33;;
24771;SDS011;12870;52.274;9.754;2022-12-15T16:12:43;0.30;;;0.30;;
24771;SDS011;12870;52.274;9.754;2022-12-15T16:15:12;0.40;;;0.40;;
24771;SDS011;12870;52.274;9.754;2022-12-15T16:17:39;0.40;;;0.40;;
24771;SDS011;12870;52.274;9.754;2022-12-15T16:20:05;0.40;;;0.40;;
24771;SDS011;12870;52.274;9.754;2022-12-15T16:22:32;0.40;;;0.40;;
24771;SDS011;12870;52.274;9.754;2022-12-15T16:24:58;0.40;;;0.40;;
24771;SDS011;12870;52.274;9.754;2022-12-15T16:27:23;0.40;;;0.40;;
24771;SDS011;12870;52.274;9.754;2022-12-15T16:29:49;0.40;;;0.40;;
24771;SDS011;12870;52.274;9.754;2022-12-15T16:32:15;0.40;;;0.40;;
24771;SDS011;12870;52.274;9.754;2022-12-15T16:34:41;0.40;;;0.40;;
24771;SDS011;12870;52.274;9.754;2022-12-15T16:37:13;0.40;;;0.40;;
24771;SDS011;12870;52.274;9.754;2022-12-15T16:39:49;0.40;;;0.40;;
24771;SDS011;12870;52.274;9.754;2022-12-15T16:42:15;0.40;;;0.40;;
24771;SDS011;12870;52.274;9.754;2022-12-15T16:44:41;0.40;;;0.40;;
24771;SDS011;12870;52.274;9.754;2022-12-15T16:47:07;0.40;;;0.40;;
24771;SDS011;12870;52.274;9.754;2022-12-15T16:49:33;0.40;;;0.40;;
24771;SDS011;12870;52.274;9.754;2022-12-15T16:51:59;0.40;;;0.40;;
24771;SDS011;12870;52.274;9.754;2022-12-15T16:54:26;0.40;;;0.40;;
24771;SDS011;12870;52.274;9.754;2022-12-15T16:56:55;0.40;;;0.40;;
24771;SDS011;12870;52.274;9.754;2022-12-15T16:59:22;0.40;;;0.40;;
24771;SDS011;12870;52.274;9.754;2022-12-15T17:01:50;0.40;;;0.40;;
24771;SDS011;12870;52.274;9.754;2022-12-15T17:04:17;0.40;;;0.40;;
24771;SDS011;12870;52.274;9.754;2022-12-15T17:06:43;0.40;;;0.40;;
24771;SDS011;12870;52.274;9.754;2022-12-15T17:09:18;0.40;;;0.40;;
24771;SDS011;12870;52.274;9.754;2022-12-15T17:11:47;0.40;;;0.40;;
24771;SDS011;12870;52.274;9.754;2022-12-15T17:14:12;0.40;;;0.40;;
24771;SDS011;12870;52.274;9.754;2022-12-15T17:16:38;0.40;;;0.40;;
24771;SDS011;12870;52.274;9.754;2022-12-15T17:19:04;0.40;;;0.40;;
24771;SDS011;12870;52.274;9.754;2022-12-15T17:21:33;0.40;;;0.40;;
24771;SDS011;12870;52.274;9.754;2022-12-15T17:24:07;0.40;;;0.40;;
24771;SDS011;12870;52.274;9.754;2022-12-15T17:26:38;0.40;;;0.40;;
24771;SDS011;12870;52.274;9.754;2022-12-15T17:29:12;0.40;;;0.40;;
24771;SDS011;12870;52.274;9.754;2022-12-15T17:31:40;0.50;;;0.50;;
24771;SDS011;12870;52.274;9.754;2022-12-15T17:36:52;0.40;;;0.40;;
24771;SDS011;12870;52.274;9.754;2022-12-15T17:39:19;0.43;;;0.43;;
24771;SDS011;12870;52.274;9.754;2022-12-15T17:41:46;0.40;;;0.40;;
24771;SDS011;12870;52.274;9.754;2022-12-15T17:44:22;0.40;;;0.40;;
24771;SDS011;12870;52.274;9.754;2022-12-15T17:46:49;0.40;;;0.40;;
24771;SDS011;12870;52.274;9.754;2022-12-15T17:49:18;0.40;;;0.40;;
24771;SDS011;12870;52.274;9.754;2022-12-15T17:51:45;0.40;;;0.40;;
24771;SDS011;12870;52.274;9.754;2022-12-15T17:54:15;0.40;;;0.40;;
24771;SDS011;12870;52.274;9.754;2022-12-15T17:56:43;0.40;;;0.40;;